createdAt,value
2023-03-31T00:01:11.167Z,10.50
2023-03-31T00:03:44.120Z,10.39
2023-03-31T00:06:18.337Z,10.35
2023-03-31T00:08:51.656Z,10.33
2023-03-31T00:11:20.502Z,10.34
2023-03-31T00:13:48.776Z,10.27
2023-03-31T00:16:17.998Z,10.26
2023-03-31T00:18:47.477Z,10.29
2023-03-31T00:21:25.675Z,10.24
2023-03-31T00:23:55.558Z,10.19
2023-03-31T00:26:23.374Z,10.15
2023-03-31T00:28:51.835Z,10.03
2023-03-31T00:31:22.025Z,10.07
2023-03-31T00:33:49.979Z,10.01
2023-03-31T00:36:21.272Z,9.91
2023-03-31T00:38:49.554Z,9.85
2023-03-31T00:41:17.484Z,9.82
2023-03-31T00:44:08.208Z,9.92
2023-03-31T00:46:43.280Z,9.88
2023-03-31T00:49:21.803Z,9.83
2023-03-31T00:51:52.618Z,9.80
2023-03-31T00:54:21.557Z,9.74
2023-03-31T00:56:53.342Z,9.71
2023-03-31T00:59:23.314Z,9.70
2023-03-31T01:01:52.806Z,9.71
2023-03-31T01:04:22.590Z,9.72
2023-03-31T01:07:00.745Z,9.73
2023-03-31T01:09:34.996Z,9.81
2023-03-31T01:12:04.718Z,9.78
2023-03-31T01:14:32.965Z,9.73
2023-03-31T01:17:02.802Z,9.77
2023-03-31T01:19:51.908Z,9.76
2023-03-31T01:22:47.371Z,9.77
2023-03-31T01:25:54.068Z,9.75
2023-03-31T01:28:32.259Z,9.77
2023-03-31T01:31:30.088Z,9.75
2023-03-31T01:34:31.272Z,9.75
2023-03-31T01:37:40.922Z,9.78
2023-03-31T01:40:49.462Z,9.82
2023-03-31T01:43:25.361Z,9.77
2023-03-31T01:46:02.051Z,9.77
2023-03-31T01:48:43.478Z,9.76
2023-03-31T01:51:17.004Z,9.68
2023-03-31T01:53:51.515Z,9.74
2023-03-31T01:56:26.992Z,9.69
2023-03-31T01:58:59.026Z,9.58
2023-03-31T02:01:31.758Z,9.56
2023-03-31T02:04:04.683Z,9.65
2023-03-31T02:06:36.934Z,9.55
2023-03-31T02:09:08.869Z,9.61
2023-03-31T02:11:40.760Z,9.64
2023-03-31T02:14:13.381Z,9.75
2023-03-31T02:16:48.024Z,9.83
2023-03-31T02:19:19.067Z,9.85
2023-03-31T02:21:49.656Z,9.85
2023-03-31T02:24:21.060Z,9.89
2023-03-31T02:26:55.091Z,9.89
2023-03-31T02:29:22.936Z,9.97
2023-03-31T02:31:57.796Z,9.95
2023-03-31T02:34:25.992Z,9.93
2023-03-31T02:36:53.755Z,9.94
2023-03-31T02:39:26.143Z,9.89
2023-03-31T02:41:55.588Z,9.88
2023-03-31T02:44:23.699Z,9.92
2023-03-31T02:46:51.843Z,9.96
2023-03-31T02:49:21.340Z,9.86
2023-03-31T02:52:31.767Z,9.86
2023-03-31T02:55:30.642Z,9.91
2023-03-31T02:58:21.020Z,9.82
2023-03-31T03:01:06.245Z,9.63
2023-03-31T03:03:44.078Z,9.59
2023-03-31T03:06:27.876Z,9.74
2023-03-31T03:09:09.095Z,9.69
2023-03-31T03:11:46.094Z,9.77
2023-03-31T03:14:23.462Z,9.71
2023-03-31T03:16:58.775Z,9.70
2023-03-31T03:19:26.941Z,9.73
2023-03-31T03:21:55.035Z,9.70
2023-03-31T03:24:23.078Z,9.64
2023-03-31T03:26:51.746Z,9.74
2023-03-31T03:29:20.837Z,9.84
2023-03-31T03:31:48.807Z,9.81
2023-03-31T03:34:16.535Z,9.84
2023-03-31T03:36:44.186Z,9.73
2023-03-31T03:39:12.295Z,9.87
2023-03-31T03:41:41.042Z,9.84
2023-03-31T03:44:08.753Z,9.91
2023-03-31T03:46:37.941Z,9.83
2023-03-31T03:49:05.763Z,9.85
2023-03-31T03:51:33.526Z,9.90
2023-03-31T03:54:01.188Z,9.85
2023-03-31T03:56:29.246Z,9.73
2023-03-31T03:58:57.628Z,9.67
2023-03-31T04:01:25.581Z,9.75
2023-03-31T04:03:54.655Z,9.69
2023-03-31T04:06:22.433Z,9.72
2023-03-31T04:08:50.212Z,9.72
2023-03-31T04:11:20.021Z,9.69
2023-03-31T04:13:48.437Z,9.72
2023-03-31T04:16:16.758Z,9.72
2023-03-31T04:18:44.830Z,9.57
2023-03-31T04:21:15.394Z,9.67
2023-03-31T04:23:46.524Z,9.69
2023-03-31T04:26:15.240Z,9.69
2023-03-31T04:28:46.543Z,9.64
2023-03-31T04:31:16.696Z,9.68
2023-03-31T04:33:46.214Z,9.66
2023-03-31T04:36:18.591Z,9.68
2023-03-31T04:38:47.754Z,9.62
2023-03-31T04:41:15.730Z,9.66
2023-03-31T04:43:43.991Z,9.70
2023-03-31T04:46:11.829Z,9.59
2023-03-31T04:48:39.713Z,9.64
2023-03-31T04:51:07.428Z,9.65
2023-03-31T04:53:36.627Z,9.87
2023-03-31T04:56:06.326Z,9.80
2023-03-31T04:58:34.396Z,9.86
2023-03-31T05:01:02.098Z,9.78
2023-03-31T05:03:29.946Z,9.94
2023-03-31T05:05:57.891Z,9.90
2023-03-31T05:08:27.225Z,9.80
2023-03-31T05:10:56.669Z,9.74
2023-03-31T05:13:25.064Z,9.82
2023-03-31T05:15:53.090Z,9.88
2023-03-31T05:18:21.043Z,9.81
2023-03-31T05:20:48.957Z,9.78
2023-03-31T05:23:16.876Z,9.83
2023-03-31T05:25:44.846Z,9.87
2023-03-31T05:28:14.200Z,9.86
2023-03-31T05:30:42.179Z,9.65
2023-03-31T05:33:10.083Z,9.81
2023-03-31T05:35:38.019Z,9.77
2023-03-31T05:38:06.679Z,9.69
2023-03-31T05:40:34.637Z,9.65
2023-03-31T05:43:02.779Z,9.72
2023-03-31T05:45:32.130Z,9.63
2023-03-31T05:48:00.324Z,9.60
2023-03-31T05:50:28.310Z,9.66
2023-03-31T05:52:56.146Z,9.55
2023-03-31T05:55:24.860Z,9.61
2023-03-31T05:57:52.578Z,9.63
2023-03-31T06:00:20.912Z,9.53
2023-03-31T06:02:50.018Z,9.46
2023-03-31T06:05:17.924Z,9.66
2023-03-31T06:07:45.666Z,9.54
2023-03-31T06:10:13.280Z,9.57
2023-03-31T06:12:41.066Z,9.54
2023-03-31T06:15:09.590Z,9.66
2023-03-31T06:17:38.632Z,9.62
2023-03-31T06:20:20.158Z,9.62
2023-03-31T06:22:54.678Z,9.65
2023-03-31T06:25:22.614Z,9.67
2023-03-31T06:27:50.321Z,9.75
2023-03-31T06:30:18.324Z,9.73
2023-03-31T06:32:46.113Z,9.66
2023-03-31T06:35:15.371Z,9.72
2023-03-31T06:37:43.117Z,9.72
2023-03-31T06:40:11.793Z,9.85
2023-03-31T06:42:39.475Z,9.80
2023-03-31T06:45:08.124Z,9.83
2023-03-31T06:47:38.161Z,9.97
2023-03-31T06:50:07.146Z,9.93
2023-03-31T06:52:36.371Z,9.76
2023-03-31T06:55:04.270Z,9.72
2023-03-31T06:57:33.563Z,9.65
2023-03-31T07:00:01.579Z,9.52
2023-03-31T07:02:29.402Z,9.31
2023-03-31T07:04:57.104Z,9.41
2023-03-31T07:07:24.780Z,9.33
2023-03-31T07:09:56.361Z,9.37
2023-03-31T07:12:24.570Z,9.27
2023-03-31T07:14:52.257Z,9.37
2023-03-31T07:17:20.034Z,9.34
2023-03-31T07:19:48.570Z,9.36
2023-03-31T07:22:16.520Z,9.26
2023-03-31T07:24:44.252Z,9.07
2023-03-31T07:27:13.291Z,9.16
2023-03-31T07:29:41.019Z,8.95
2023-03-31T07:32:08.772Z,8.94
2023-03-31T07:34:37.813Z,9.02
2023-03-31T07:37:06.204Z,9.02
2023-03-31T07:39:33.899Z,9.04
2023-03-31T07:42:01.740Z,9.11
2023-03-31T07:44:31.403Z,9.12
2023-03-31T07:47:01.370Z,9.14
2023-03-31T07:49:29.134Z,9.01
2023-03-31T07:51:56.986Z,9.08
2023-03-31T07:54:24.683Z,9.01
2023-03-31T07:56:52.355Z,9.06
2023-03-31T07:59:20.712Z,9.15
2023-03-31T08:01:49.786Z,9.10
2023-03-31T08:04:17.627Z,9.18
2023-03-31T08:06:45.843Z,9.10
2023-03-31T08:09:13.526Z,9.12
2023-03-31T08:11:41.241Z,9.04
2023-03-31T08:14:08.885Z,9.01
2023-03-31T08:16:36.947Z,9.04
2023-03-31T08:19:06.090Z,9.05
2023-03-31T08:21:33.802Z,8.98
2023-03-31T08:24:01.486Z,8.91
2023-03-31T08:26:29.161Z,8.94
2023-03-31T08:28:59.065Z,9.00
2023-03-31T08:31:29.056Z,9.10
2023-03-31T08:33:57.329Z,9.12
2023-03-31T08:36:27.182Z,9.19
2023-03-31T08:38:55.001Z,9.16
2023-03-31T08:41:43.687Z,9.30
2023-03-31T08:44:15.981Z,9.27
2023-03-31T08:46:44.577Z,9.39
2023-03-31T08:49:17.558Z,9.32
2023-03-31T08:51:50.165Z,9.34
2023-03-31T08:54:22.168Z,9.40
2023-03-31T08:56:51.805Z,9.48
2023-03-31T08:59:27.227Z,9.67
2023-03-31T09:02:01.958Z,9.73
2023-03-31T09:04:52.396Z,9.76
2023-03-31T09:07:28.022Z,9.98
2023-03-31T09:10:03.979Z,10.05
2023-03-31T09:12:39.991Z,10.22
2023-03-31T09:15:12.988Z,10.24
2023-03-31T09:17:45.691Z,10.28
2023-03-31T09:20:17.058Z,10.22
2023-03-31T09:22:49.543Z,10.24
2023-03-31T09:25:22.500Z,10.30
2023-03-31T09:27:53.575Z,10.27
2023-03-31T09:30:25.351Z,10.32
2023-03-31T09:32:57.965Z,10.35
2023-03-31T09:35:27.323Z,10.27
2023-03-31T09:37:57.155Z,10.51
2023-03-31T09:40:27.864Z,10.76
2023-03-31T09:43:11.576Z,10.78
2023-03-31T09:57:02.546Z,16.12
2023-03-31T09:59:35.089Z,18.27
2023-03-31T10:02:05.936Z,18.72
2023-03-31T10:04:35.918Z,18.43
2023-03-31T10:07:06.440Z,18.03
2023-03-31T10:09:35.393Z,17.06
2023-03-31T10:12:08.542Z,16.42
2023-03-31T10:14:42.470Z,15.98
2023-03-31T10:17:16.806Z,15.07
2023-03-31T10:19:50.383Z,14.43
2023-03-31T10:22:28.985Z,14.01
2023-03-31T10:25:10.884Z,13.59
2023-03-31T10:27:42.157Z,13.49
2023-03-31T10:30:13.264Z,13.53
2023-03-31T10:32:43.564Z,13.54
2023-03-31T10:35:23.565Z,13.37
2023-03-31T10:37:55.704Z,13.30
2023-03-31T10:40:26.452Z,13.28
2023-03-31T10:43:05.001Z,13.61
2023-03-31T10:45:38.743Z,14.05
2023-03-31T10:48:17.944Z,14.48
2023-03-31T10:50:46.073Z,14.47
2023-03-31T10:53:15.615Z,14.41
2023-03-31T10:55:54.022Z,14.29
2023-03-31T10:58:35.294Z,14.72
2023-03-31T11:01:15.075Z,14.77
2023-03-31T11:04:04.409Z,14.71
2023-03-31T11:06:50.408Z,14.34
2023-03-31T11:09:33.214Z,14.17
2023-03-31T11:12:09.270Z,13.98
2023-03-31T11:14:52.437Z,13.88
2023-03-31T11:17:31.542Z,13.98
2023-03-31T11:20:13.084Z,14.15
2023-03-31T11:22:48.326Z,14.53
2023-03-31T11:25:27.485Z,15.44
2023-03-31T11:28:21.367Z,15.86
2023-03-31T11:30:56.734Z,15.65
2023-03-31T11:33:41.375Z,15.12
2023-03-31T11:36:22.461Z,15.04
2023-03-31T11:39:01.111Z,14.75
2023-03-31T11:41:36.023Z,13.68
2023-03-31T11:44:06.620Z,12.40
2023-03-31T11:46:42.404Z,11.83
2023-03-31T11:49:19.049Z,11.70
2023-03-31T11:51:53.986Z,12.03
2023-03-31T11:54:27.032Z,12.20
2023-03-31T11:56:57.254Z,12.30
2023-03-31T11:59:31.712Z,12.01
2023-03-31T12:02:11.899Z,11.92
2023-03-31T12:04:42.317Z,12.04
2023-03-31T12:07:23.807Z,12.21
2023-03-31T12:10:03.090Z,12.52
2023-03-31T12:12:34.637Z,12.97
2023-03-31T12:15:12.365Z,13.90
2023-03-31T12:17:44.559Z,15.31
2023-03-31T12:20:28.286Z,16.65
2023-03-31T12:22:57.535Z,16.15
2023-03-31T12:25:26.582Z,14.82
2023-03-31T12:27:54.830Z,14.33
2023-03-31T12:30:30.721Z,13.87
2023-03-31T12:33:04.178Z,13.63
2023-03-31T12:35:48.230Z,13.68
2023-03-31T12:38:37.758Z,13.38
2023-03-31T12:41:14.812Z,12.92
2023-03-31T12:44:22.304Z,12.78
2023-03-31T12:47:05.060Z,12.78
2023-03-31T12:49:47.188Z,12.57
2023-03-31T12:52:19.785Z,12.79
2023-03-31T12:55:21.383Z,12.80
2023-03-31T12:57:49.202Z,12.76
2023-03-31T13:00:25.946Z,12.87
2023-03-31T13:03:27.041Z,12.89
2023-03-31T13:05:57.789Z,12.79
2023-03-31T13:08:53.447Z,11.93
2023-03-31T13:11:22.992Z,10.01
2023-03-31T13:14:01.582Z,9.08
2023-03-31T13:16:30.138Z,8.77
2023-03-31T13:18:58.412Z,8.70
2023-03-31T13:21:28.037Z,8.73
2023-03-31T13:24:01.149Z,8.85
2023-03-31T13:26:41.164Z,9.14
2023-03-31T13:29:21.373Z,9.38
2023-03-31T13:32:26.528Z,9.91
2023-03-31T13:35:00.074Z,10.43
2023-03-31T13:37:47.029Z,10.92
2023-03-31T13:40:31.865Z,11.24
2023-03-31T13:43:16.113Z,11.36
2023-03-31T13:46:00.934Z,11.34
2023-03-31T13:48:45.543Z,11.60
2023-03-31T13:51:29.946Z,11.62
2023-03-31T14:06:24.635Z,12.20
2023-03-31T14:08:57.357Z,12.15
2023-03-31T14:11:26.928Z,11.90
2023-03-31T14:14:02.872Z,11.88
2023-03-31T14:16:34.643Z,11.97
2023-03-31T14:19:16.824Z,12.10
2023-03-31T14:21:53.231Z,12.18
2023-03-31T14:24:33.176Z,12.59
2023-03-31T14:27:09.026Z,12.77
2023-03-31T14:29:47.725Z,12.92
2023-03-31T14:32:25.511Z,12.90
2023-03-31T14:35:15.295Z,12.88
2023-03-31T14:37:42.958Z,12.90
2023-03-31T14:40:17.301Z,13.03
2023-03-31T14:42:49.705Z,12.92
2023-03-31T14:45:20.637Z,13.01
2023-03-31T14:47:56.479Z,12.93
2023-03-31T14:50:31.234Z,12.96
2023-03-31T14:52:59.614Z,13.27
2023-03-31T14:55:49.441Z,13.34
2023-03-31T14:58:27.960Z,13.14
2023-03-31T15:00:56.072Z,12.86
2023-03-31T15:03:27.501Z,12.83
2023-03-31T15:05:59.201Z,12.80
2023-03-31T15:08:28.057Z,12.82
2023-03-31T15:11:12.016Z,12.86
2023-03-31T15:13:56.597Z,12.89
2023-03-31T15:16:36.241Z,13.08
2023-03-31T15:19:12.517Z,13.11
2023-03-31T15:21:40.544Z,13.14
2023-03-31T15:24:08.533Z,13.11
2023-03-31T15:26:41.642Z,12.97
2023-03-31T15:29:13.514Z,12.94
2023-03-31T15:31:42.032Z,12.92
2023-03-31T15:34:20.621Z,12.93
2023-03-31T15:36:49.320Z,12.95
2023-03-31T15:39:17.106Z,12.95
2023-03-31T15:41:49.221Z,12.89
2023-03-31T15:44:37.769Z,12.92
2023-03-31T19:38:06.963Z,10.16
2023-03-31T19:40:34.753Z,10.18
2023-03-31T19:43:02.490Z,10.15
2023-03-31T19:45:30.677Z,10.11
2023-03-31T19:47:58.882Z,10.07
2023-03-31T19:50:26.637Z,10.04
2023-03-31T19:52:54.385Z,10.02
2023-03-31T19:55:23.489Z,10.05
2023-03-31T19:57:51.256Z,10.01
2023-03-31T20:00:20.189Z,10.03
2023-03-31T20:02:49.317Z,9.98
2023-03-31T20:05:19.382Z,9.93
2023-03-31T20:07:47.538Z,9.96
2023-03-31T20:10:15.914Z,9.95
2023-03-31T20:12:45.368Z,9.95
2023-03-31T20:15:13.238Z,9.93
2023-03-31T20:17:41.112Z,9.80
2023-03-31T20:20:10.174Z,9.56
2023-03-31T20:22:37.951Z,9.54
2023-03-31T20:25:06.609Z,9.53
2023-03-31T20:27:34.405Z,9.53
2023-03-31T20:30:03.661Z,9.47
2023-03-31T20:32:31.585Z,9.25
2023-03-31T20:35:00.514Z,9.06
2023-03-31T20:37:28.693Z,8.90
2023-03-31T20:39:56.722Z,8.81
2023-03-31T20:42:24.743Z,8.72
2023-03-31T20:44:52.655Z,8.71
2023-03-31T20:47:22.325Z,8.71
2023-03-31T20:49:50.367Z,8.72
2023-03-31T20:52:18.312Z,8.68
2023-03-31T20:54:46.479Z,8.64
2023-03-31T20:57:14.589Z,8.66
2023-03-31T20:59:42.836Z,8.75
2023-03-31T21:02:12.702Z,8.83
2023-03-31T21:04:42.169Z,8.88
2023-03-31T21:07:09.995Z,8.89
2023-03-31T21:09:37.853Z,8.89
2023-03-31T21:12:06.337Z,8.85
2023-03-31T21:14:34.555Z,8.86
2023-03-31T21:17:02.707Z,8.83
2023-03-31T21:19:31.851Z,8.83
2023-03-31T21:22:01.256Z,8.78
2023-03-31T21:24:29.162Z,8.85
2023-03-31T21:26:56.882Z,8.80
2023-03-31T21:29:24.732Z,8.80
2023-03-31T21:31:52.733Z,8.82
2023-03-31T21:34:20.720Z,8.75
2023-03-31T21:36:50.212Z,8.79
2023-03-31T21:39:19.506Z,8.78
2023-03-31T21:41:47.369Z,8.77
2023-03-31T21:44:15.225Z,8.85
2023-03-31T21:46:45.064Z,8.86
2023-03-31T21:49:12.972Z,8.82
2023-03-31T21:51:40.799Z,8.85
2023-03-31T21:54:08.813Z,8.88
2023-03-31T21:56:38.045Z,8.94
2023-03-31T21:59:05.992Z,8.97
2023-03-31T22:01:33.748Z,8.97
2023-03-31T22:04:01.622Z,8.99
2023-03-31T22:06:29.365Z,9.02
2023-03-31T22:08:57.298Z,9.00
2023-03-31T22:11:24.997Z,8.99
2023-03-31T22:13:53.994Z,9.05
2023-03-31T22:16:23.282Z,9.01
2023-03-31T22:18:52.622Z,9.03
2023-03-31T22:21:22.965Z,9.10
2023-03-31T22:23:52.519Z,9.06
2023-03-31T22:26:20.470Z,9.02
2023-03-31T22:28:49.726Z,8.97
2023-03-31T22:31:18.994Z,9.00
2023-03-31T22:33:47.528Z,8.94
2023-03-31T22:36:15.673Z,8.99
2023-03-31T22:38:43.506Z,8.99
2023-03-31T22:41:11.322Z,8.94
2023-03-31T22:43:39.667Z,8.94
2023-03-31T22:46:08.523Z,8.88
2023-03-31T22:48:37.517Z,8.88
2023-03-31T22:51:06.128Z,8.90
2023-03-31T22:53:34.556Z,8.81
2023-03-31T22:56:07.910Z,8.85
2023-03-31T22:58:36.244Z,8.88
2023-03-31T23:01:05.828Z,8.81
2023-03-31T23:03:34.017Z,8.79
2023-03-31T23:06:05.556Z,8.70
2023-03-31T23:08:35.730Z,8.61
2023-03-31T23:11:04.297Z,8.62
2023-03-31T23:13:32.014Z,8.68
2023-03-31T23:16:05.058Z,8.71
2023-03-31T23:18:32.710Z,8.75
2023-03-31T23:21:01.164Z,8.74
2023-03-31T23:23:31.338Z,8.72
2023-03-31T23:26:01.496Z,8.73
2023-03-31T23:28:29.206Z,8.76
2023-03-31T23:30:57.912Z,8.71
2023-03-31T23:33:25.913Z,8.74
2023-03-31T23:35:54.279Z,8.78
2023-03-31T23:38:22.403Z,8.80
2023-03-31T23:40:51.557Z,8.82
2023-03-31T23:43:19.225Z,8.88
2023-03-31T23:45:47.049Z,8.81
2023-03-31T23:48:14.823Z,8.83
2023-03-31T23:50:42.484Z,8.91
2023-03-31T23:53:10.218Z,8.90
2023-03-31T23:55:40.798Z,8.96
2023-03-31T23:58:09.868Z,8.99
